createdAt,value
2022-08-15T00:02:34.849Z,70.11
2022-08-15T00:05:06.057Z,70.24
2022-08-15T00:06:38.029Z,70.01
2022-08-15T00:08:57.701Z,69.10
2022-08-15T00:11:28.498Z,68.57
2022-08-15T00:14:14.164Z,68.11
2022-08-15T00:16:42.550Z,68.38
2022-08-15T00:17:55.276Z,68.54
2022-08-15T00:20:33.454Z,68.34
2022-08-15T00:22:55.906Z,68.49
2022-08-15T00:26:55.160Z,69.86
2022-08-15T00:28:04.187Z,69.38
2022-08-15T00:29:14.622Z,70.63
2022-08-15T00:31:42.770Z,70.15
2022-08-15T00:34:39.381Z,70.00
2022-08-15T00:38:28.190Z,69.08
2022-08-15T00:39:39.110Z,69.41
2022-08-15T00:41:19.956Z,68.99
2022-08-15T00:43:48.846Z,69.29
2022-08-15T00:46:21.959Z,69.49
2022-08-15T00:48:58.781Z,69.42
2022-08-15T00:51:50.534Z,69.25
2022-08-15T00:54:55.699Z,69.78
2022-08-15T00:57:03.203Z,69.49
2022-08-15T00:58:33.604Z,69.54
2022-08-15T01:00:49.030Z,69.53
2022-08-15T01:06:14.167Z,69.47
2022-08-15T01:07:24.183Z,69.57
2022-08-15T01:08:39.768Z,69.71
2022-08-15T01:11:09.909Z,69.81
2022-08-15T01:14:03.654Z,69.39
2022-08-15T01:17:38.413Z,69.71
2022-08-15T01:18:52.834Z,69.96
2022-08-15T01:20:05.563Z,69.84
2022-08-15T01:23:13.361Z,70.04
2022-08-15T01:26:41.149Z,69.54
2022-08-15T01:27:20.774Z,69.85
2022-08-15T01:28:38.485Z,69.59
2022-08-15T01:29:52.099Z,69.54
2022-08-15T01:32:26.421Z,69.15
2022-08-15T01:35:04.086Z,69.26
2022-08-15T01:37:57.849Z,69.34
2022-08-15T01:41:55.934Z,69.08
2022-08-15T01:43:08.671Z,69.04
2022-08-15T01:44:25.462Z,69.50
2022-08-15T01:45:36.169Z,69.56
2022-08-15T01:48:26.484Z,69.10
2022-08-15T01:50:58.955Z,68.96
2022-08-15T01:53:37.841Z,68.50
2022-08-15T01:57:43.583Z,68.76
2022-08-15T01:58:57.379Z,68.68
2022-08-15T02:00:18.141Z,68.78
2022-08-15T02:02:46.860Z,69.17
2022-08-15T02:05:11.973Z,69.20
2022-08-15T02:09:17.749Z,69.10
2022-08-15T02:11:58.449Z,68.80
2022-08-15T02:14:37.675Z,68.84
2022-08-15T02:16:58.246Z,69.20
2022-08-15T02:19:26.462Z,69.38
2022-08-15T02:20:39.384Z,69.32
2022-08-15T02:23:04.981Z,69.42
2022-08-15T02:24:20.411Z,69.30
2022-08-15T02:25:37.065Z,69.07
2022-08-15T02:26:42.471Z,69.25
2022-08-15T02:27:53.969Z,68.92
2022-08-15T02:29:06.755Z,68.73
2022-08-15T02:30:19.665Z,68.83
2022-08-15T02:31:34.624Z,68.91
2022-08-15T02:32:47.590Z,69.00
2022-08-15T02:35:18.108Z,68.91
2022-08-15T02:37:57.931Z,69.05
2022-08-15T02:41:54.650Z,69.21
2022-08-15T02:43:10.283Z,69.19
2022-08-15T02:44:23.237Z,68.74
2022-08-15T02:47:08.490Z,68.88
2022-08-15T02:49:35.545Z,68.51
2022-08-15T02:50:48.035Z,68.53
2022-08-15T02:51:59.315Z,68.69
2022-08-15T02:54:59.343Z,68.40
2022-08-15T02:57:22.449Z,68.33
2022-08-15T02:59:47.457Z,68.72
2022-08-15T03:02:30.785Z,68.69
2022-08-15T03:05:03.931Z,69.08
2022-08-15T03:06:31.299Z,69.31
2022-08-15T03:07:31.091Z,69.50
2022-08-15T03:08:45.132Z,69.67
2022-08-15T03:11:10.864Z,70.12
2022-08-15T03:13:41.569Z,69.94
2022-08-15T03:17:36.294Z,68.90
2022-08-15T03:20:09.057Z,68.48
2022-08-15T03:22:51.605Z,68.52
2022-08-15T03:24:06.030Z,68.62
2022-08-15T03:26:47.151Z,67.97
2022-08-15T03:27:47.619Z,68.05
2022-08-15T03:29:04.208Z,67.75
2022-08-15T03:31:31.059Z,67.92
2022-08-15T03:34:09.838Z,67.59
2022-08-15T03:35:23.941Z,67.48
2022-08-15T03:38:10.316Z,67.35
2022-08-15T03:39:21.455Z,67.27
2022-08-15T03:40:31.998Z,67.74
2022-08-15T03:41:44.476Z,67.47
2022-08-15T03:44:26.112Z,67.38
2022-08-15T03:46:46.103Z,67.92
2022-08-15T03:50:23.293Z,67.92
2022-08-15T03:51:52.377Z,67.90
2022-08-15T03:54:25.205Z,68.11
2022-08-15T03:55:34.925Z,68.04
2022-08-15T03:56:48.853Z,68.11
2022-08-15T03:58:04.943Z,68.25
2022-08-15T04:00:35.250Z,68.12
2022-08-15T04:03:06.034Z,68.57
2022-08-15T04:07:01.536Z,68.89
2022-08-15T04:09:31.720Z,68.85
2022-08-15T04:13:27.018Z,68.68
2022-08-15T04:14:39.047Z,68.78
2022-08-15T04:16:06.452Z,68.70
2022-08-15T04:18:43.650Z,68.63
2022-08-15T04:19:46.346Z,68.58
2022-08-15T04:20:46.416Z,68.50
2022-08-15T04:22:06.617Z,68.13
2022-08-15T04:23:16.212Z,67.88
2022-08-15T04:25:54.382Z,67.30
2022-08-15T04:27:00.909Z,67.34
2022-08-15T04:29:30.390Z,66.88
2022-08-15T04:31:58.610Z,66.49
2022-08-15T04:34:47.795Z,66.19
2022-08-15T04:37:14.376Z,65.98
2022-08-15T04:38:27.278Z,66.06
2022-08-15T04:39:37.747Z,66.13
2022-08-15T04:41:19.370Z,65.97
2022-08-15T04:42:06.827Z,65.95
2022-08-15T04:44:38.714Z,66.03
2022-08-15T04:45:48.824Z,66.02
2022-08-15T04:48:19.705Z,65.63
2022-08-15T04:50:49.694Z,65.51
2022-08-15T04:54:59.872Z,65.18
2022-08-15T04:57:34.861Z,64.96
2022-08-15T05:02:04.093Z,63.32
2022-08-15T05:04:25.861Z,63.26
2022-08-15T05:05:39.016Z,63.76
2022-08-15T05:08:11.885Z,63.56
2022-08-15T05:09:19.289Z,64.17
2022-08-15T05:10:33.865Z,64.15
2022-08-15T05:12:00.628Z,63.91
2022-08-15T05:14:36.232Z,63.38
2022-08-15T05:19:37.285Z,63.78
2022-08-15T05:22:04.182Z,63.43
2022-08-15T05:23:18.633Z,63.10
2022-08-15T05:26:53.687Z,62.80
2022-08-15T05:27:20.557Z,63.08
2022-08-15T05:28:32.160Z,63.06
2022-08-15T05:29:44.552Z,62.60
2022-08-15T05:30:57.806Z,62.69
2022-08-15T05:32:07.538Z,63.00
2022-08-15T05:34:43.131Z,62.96
2022-08-15T05:37:11.518Z,62.94
2022-08-15T05:39:52.369Z,63.33
2022-08-15T05:41:37.967Z,63.16
2022-08-15T05:44:38.323Z,63.08
2022-08-15T05:47:15.349Z,62.99
2022-08-15T05:51:42.720Z,62.86
2022-08-15T05:54:19.361Z,62.73
2022-08-15T05:57:01.613Z,62.33
2022-08-15T05:58:49.379Z,62.47
2022-08-15T06:01:36.009Z,61.82
2022-08-15T06:04:29.864Z,61.96
2022-08-15T06:05:35.699Z,61.79
2022-08-15T06:06:49.152Z,61.30
2022-08-15T06:08:09.184Z,60.89
2022-08-15T06:12:26.647Z,60.59
2022-08-15T06:16:40.858Z,59.14
2022-08-15T06:17:47.014Z,59.57
2022-08-15T06:20:30.468Z,58.97
2022-08-15T06:23:05.614Z,59.38
2022-08-15T06:26:18.728Z,59.32
2022-08-15T06:27:49.495Z,59.38
2022-08-15T06:30:24.601Z,59.49
2022-08-15T06:31:54.707Z,59.44
2022-08-15T06:33:17.073Z,59.36
2022-08-15T06:40:31.180Z,59.47
2022-08-15T06:43:02.491Z,59.14
2022-08-15T06:46:40.003Z,59.50
2022-08-15T06:49:05.869Z,59.01
2022-08-15T06:50:22.918Z,59.31
2022-08-15T06:51:44.878Z,59.47
2022-08-15T06:53:10.180Z,58.97
2022-08-15T06:55:55.629Z,58.47
2022-08-15T06:59:05.026Z,57.92
2022-08-15T07:02:40.408Z,57.71
2022-08-15T07:05:31.333Z,57.62
2022-08-15T07:08:29.080Z,56.83
2022-08-15T07:11:28.709Z,56.38
2022-08-15T07:14:30.065Z,57.16
2022-08-15T07:16:02.256Z,57.06
2022-08-15T07:18:53.574Z,55.92
2022-08-15T07:21:53.238Z,55.99
2022-08-15T07:25:51.265Z,55.70
2022-08-15T07:28:36.664Z,55.71
2022-08-15T07:37:07.988Z,55.84
2022-08-15T07:40:00.793Z,55.74
2022-08-15T07:42:59.644Z,55.25
2022-08-15T07:44:20.995Z,55.73
2022-08-15T07:45:40.984Z,55.38
2022-08-15T07:48:35.593Z,55.54
2022-08-15T07:51:46.045Z,55.71
2022-08-15T07:56:38.898Z,55.46
2022-08-15T08:01:43.591Z,54.34
2022-08-15T08:04:37.407Z,54.00
2022-08-15T08:09:03.784Z,53.79
2022-08-15T08:10:35.374Z,54.48
2022-08-15T08:13:24.008Z,54.40
2022-08-15T08:19:16.367Z,54.48
2022-08-15T08:22:14.005Z,54.22
2022-08-15T08:23:37.746Z,54.13
2022-08-15T08:26:30.589Z,55.37
2022-08-15T08:28:10.640Z,55.46
2022-08-15T08:31:14.093Z,54.89
2022-08-15T08:34:00.671Z,55.02
2022-08-15T08:35:34.878Z,54.98
2022-08-15T08:39:03.322Z,55.15
2022-08-15T08:41:55.617Z,54.54
2022-08-15T08:44:39.414Z,54.64
2022-08-15T08:45:55.128Z,54.22
2022-08-15T08:48:38.061Z,53.32
2022-08-15T08:50:33.811Z,53.56
2022-08-15T08:52:06.110Z,53.84
2022-08-15T08:55:01.092Z,53.06
2022-08-15T09:00:55.731Z,52.83
2022-08-15T09:03:37.566Z,51.79
2022-08-15T09:06:10.321Z,52.34
2022-08-15T09:07:26.093Z,52.49
2022-08-15T09:08:48.036Z,52.05
2022-08-15T09:10:01.458Z,51.96
2022-08-15T09:13:02.889Z,52.01
2022-08-15T09:15:47.139Z,52.21
2022-08-15T09:19:57.470Z,51.88
2022-08-15T09:22:25.181Z,52.13
2022-08-15T09:25:11.681Z,52.15
2022-08-15T09:28:08.493Z,51.96
2022-08-15T09:30:49.934Z,51.88
2022-08-15T09:32:38.067Z,51.86
2022-08-15T09:34:11.556Z,51.61
2022-08-15T09:42:35.532Z,51.14
2022-08-15T09:47:01.178Z,50.26
2022-08-15T09:48:19.344Z,50.75
2022-08-15T09:51:26.475Z,50.85
2022-08-15T09:52:54.260Z,50.81
2022-08-15T09:55:46.356Z,50.63
2022-08-15T09:58:41.680Z,49.92
2022-08-15T10:02:49.897Z,50.02
2022-08-15T10:05:26.993Z,50.33
2022-08-15T10:07:10.844Z,50.15
2022-08-15T10:09:38.370Z,49.94
2022-08-15T10:10:57.855Z,50.08
2022-08-15T10:12:12.377Z,50.12
2022-08-15T10:15:04.116Z,49.82
2022-08-15T10:16:43.370Z,49.91
2022-08-15T10:17:59.104Z,50.13
2022-08-15T10:19:13.371Z,50.56
2022-08-15T10:20:33.360Z,50.25
2022-08-15T10:21:46.688Z,50.23
2022-08-15T10:23:05.304Z,49.96
2022-08-15T10:27:10.406Z,49.49
2022-08-15T10:28:38.324Z,49.57
2022-08-15T10:29:40.931Z,50.29
2022-08-15T10:31:06.824Z,50.42
2022-08-15T10:32:38.191Z,49.64
2022-08-15T10:33:58.418Z,48.80
2022-08-15T10:35:06.730Z,48.40
2022-08-15T10:37:58.912Z,49.40
2022-08-15T10:39:33.535Z,49.60
2022-08-15T10:42:48.605Z,49.07
2022-08-15T10:44:35.017Z,49.07
2022-08-15T10:46:22.180Z,48.30
2022-08-15T10:49:24.266Z,48.60
2022-08-15T10:52:48.257Z,47.45
2022-08-15T10:55:56.797Z,48.27
2022-08-15T10:58:34.254Z,47.70
2022-08-15T11:01:23.032Z,46.63
2022-08-15T11:04:50.266Z,47.09
2022-08-15T11:06:56.344Z,47.43
2022-08-15T11:08:02.931Z,47.39
2022-08-15T11:10:41.653Z,47.28
2022-08-15T11:13:15.449Z,47.66
2022-08-15T11:14:29.782Z,47.71
2022-08-15T11:16:00.043Z,47.72
2022-08-15T11:18:41.057Z,48.10
2022-08-15T11:24:35.096Z,49.03
2022-08-15T11:27:23.738Z,49.52
2022-08-15T11:28:55.206Z,49.09
2022-08-15T11:29:52.892Z,49.14
2022-08-15T11:31:06.328Z,49.53
2022-08-15T11:36:29.617Z,49.69
2022-08-15T11:37:44.201Z,49.74
2022-08-15T11:40:27.480Z,49.96
2022-08-15T11:41:50.802Z,50.06
2022-08-15T11:43:02.668Z,50.40
2022-08-15T11:44:13.887Z,50.51
2022-08-15T11:46:46.532Z,50.89
2022-08-15T11:52:41.456Z,50.95
2022-08-15T11:55:51.765Z,49.98
2022-08-15T11:58:35.917Z,49.80
2022-08-15T12:04:41.686Z,49.43
2022-08-15T12:06:50.967Z,49.04
2022-08-15T12:11:17.556Z,48.95
2022-08-15T12:17:02.320Z,48.92
2022-08-15T12:20:26.673Z,49.00
2022-08-15T12:22:53.117Z,49.16
2022-08-15T12:25:18.811Z,48.96
2022-08-15T12:26:40.357Z,49.10
2022-08-15T12:27:42.960Z,48.83
2022-08-15T12:28:55.991Z,48.99
2022-08-15T12:31:37.052Z,48.73
2022-08-15T12:32:47.145Z,48.76
2022-08-15T12:34:27.792Z,48.66
2022-08-15T12:35:42.119Z,48.90
2022-08-15T12:37:54.271Z,49.51
2022-08-15T12:40:54.164Z,50.03
2022-08-15T12:42:55.034Z,49.80
2022-08-15T12:47:08.007Z,50.22
2022-08-15T12:48:35.662Z,50.11
2022-08-15T12:49:47.203Z,49.99
2022-08-15T12:50:51.872Z,50.14
2022-08-15T12:53:22.550Z,50.73
2022-08-15T12:54:38.316Z,50.69
2022-08-15T12:55:47.732Z,50.81
2022-08-15T12:57:09.737Z,50.86
2022-08-15T12:58:13.918Z,50.83
2022-08-15T12:59:21.075Z,50.71
2022-08-15T13:00:36.466Z,50.79
2022-08-15T13:03:23.590Z,50.82
2022-08-15T13:04:41.030Z,50.83
2022-08-15T13:07:02.729Z,50.91
2022-08-15T13:09:32.069Z,50.48
2022-08-15T13:13:26.309Z,50.99
2022-08-15T13:15:52.482Z,51.22
2022-08-15T13:20:06.845Z,50.99
2022-08-15T13:23:09.710Z,51.26
2022-08-15T13:25:47.503Z,51.67
2022-08-15T13:28:15.651Z,51.77
2022-08-15T13:29:26.192Z,51.78
2022-08-15T13:30:41.598Z,52.15
2022-08-15T13:31:52.581Z,52.12
2022-08-15T13:34:19.626Z,52.26
2022-08-15T13:36:55.168Z,52.68
2022-08-15T13:40:50.385Z,52.65
2022-08-15T13:42:05.124Z,52.83
2022-08-15T13:43:12.528Z,53.16
2022-08-15T13:45:56.216Z,53.32
2022-08-15T13:48:17.725Z,53.35
2022-08-15T13:52:46.192Z,53.38
2022-08-15T13:56:30.647Z,53.37
2022-08-15T13:57:37.236Z,53.79
2022-08-15T13:58:57.763Z,54.09
2022-08-15T14:00:57.343Z,54.26
2022-08-15T14:02:37.252Z,54.41
2022-08-15T14:05:06.478Z,54.63
2022-08-15T14:07:53.456Z,54.06
2022-08-15T14:11:32.762Z,54.63
2022-08-15T14:12:43.321Z,53.95
2022-08-15T14:13:53.078Z,54.13
2022-08-15T14:15:06.964Z,54.27
2022-08-15T14:16:41.599Z,54.37
2022-08-15T14:17:28.929Z,54.04
2022-08-15T14:18:51.701Z,53.55
2022-08-15T14:20:02.275Z,53.64
2022-08-15T14:22:27.663Z,53.29
2022-08-15T14:23:50.485Z,53.57
2022-08-15T14:27:07.593Z,53.59
2022-08-15T14:27:38.412Z,53.75
2022-08-15T14:43:17.772Z,50.55
2022-08-15T14:47:19.232Z,48.76
2022-08-15T14:48:46.817Z,48.63
2022-08-15T14:52:03.342Z,48.21
2022-08-15T14:58:00.047Z,46.83
2022-08-15T15:00:31.424Z,46.29
2022-08-15T15:04:21.588Z,45.52
2022-08-15T15:06:46.078Z,46.18
2022-08-15T15:09:26.134Z,46.69
2022-08-15T15:10:37.600Z,46.46
2022-08-15T15:13:14.469Z,46.32
2022-08-15T15:14:25.811Z,45.60
2022-08-15T15:15:42.320Z,44.69
2022-08-15T15:16:52.331Z,44.85
2022-08-15T15:19:20.897Z,43.65
2022-08-15T15:21:53.489Z,43.85
2022-08-15T15:23:05.261Z,43.77
2022-08-15T15:24:16.108Z,43.84
2022-08-15T15:25:27.332Z,42.74
2022-08-15T15:26:55.046Z,43.63
2022-08-15T15:27:59.372Z,43.39
2022-08-15T15:29:01.071Z,43.54
2022-08-15T15:31:29.543Z,43.76
2022-08-15T15:32:39.856Z,43.84
2022-08-15T15:33:51.574Z,43.91
2022-08-15T15:36:35.660Z,44.00
2022-08-15T15:37:44.941Z,43.86
2022-08-15T15:39:00.976Z,43.94
2022-08-15T15:40:20.742Z,43.95
2022-08-15T15:41:25.701Z,44.20
2022-08-15T15:42:35.789Z,44.21
2022-08-15T15:43:46.086Z,44.22
2022-08-15T15:44:55.108Z,44.46
2022-08-15T15:47:24.815Z,44.39
2022-08-15T15:48:45.337Z,44.62
2022-08-15T15:49:48.282Z,44.66
2022-08-15T15:51:00.409Z,44.67
2022-08-15T15:52:21.667Z,44.93
2022-08-15T15:53:34.298Z,45.03
2022-08-15T15:54:52.788Z,45.01
2022-08-15T15:58:02.722Z,45.37
2022-08-15T15:59:01.524Z,45.38
2022-08-15T16:02:43.498Z,45.58
2022-08-15T16:02:44.221Z,45.46
2022-08-15T16:05:09.558Z,46.18
2022-08-15T16:07:02.439Z,46.08
2022-08-15T16:08:51.320Z,46.26
2022-08-15T16:11:42.242Z,46.04
2022-08-15T16:12:59.374Z,46.17
2022-08-15T16:22:01.182Z,46.81
2022-08-15T16:29:18.396Z,46.96
2022-08-15T16:34:59.068Z,47.61
2022-08-15T16:37:56.602Z,47.43
2022-08-15T16:40:59.855Z,47.82
2022-08-15T16:41:53.307Z,47.91
2022-08-15T16:44:40.349Z,47.87
2022-08-15T16:47:35.330Z,47.76
2022-08-15T16:50:23.434Z,47.63
2022-08-15T16:53:26.415Z,47.74
2022-08-15T16:56:33.312Z,47.65
2022-08-15T16:57:59.695Z,47.71
2022-08-15T17:00:43.120Z,48.00
2022-08-15T17:03:20.518Z,48.13
2022-08-15T17:05:06.715Z,48.05
2022-08-15T17:06:38.138Z,48.23
2022-08-15T17:09:58.714Z,48.02
2022-08-15T17:12:54.575Z,48.18
2022-08-15T17:16:00.597Z,48.11
2022-08-15T17:18:52.421Z,48.21
2022-08-15T17:23:14.062Z,48.03
2022-08-15T17:25:00.115Z,47.95
2022-08-15T17:27:37.746Z,48.09
2022-08-15T17:30:53.919Z,47.98
2022-08-15T17:34:41.476Z,48.01
2022-08-15T17:35:38.319Z,48.10
2022-08-15T17:38:06.465Z,48.10
2022-08-15T17:39:37.947Z,48.02
2022-08-15T17:42:16.573Z,48.42
2022-08-15T17:45:35.410Z,48.09
2022-08-15T17:47:53.298Z,48.24
2022-08-15T17:58:01.147Z,48.32
2022-08-15T18:01:57.055Z,48.46
2022-08-15T18:04:30.996Z,48.30
2022-08-15T18:06:04.353Z,48.18
2022-08-15T18:06:49.833Z,48.12
2022-08-15T18:10:27.313Z,48.16
2022-08-15T18:13:58.014Z,48.21
2022-08-15T18:16:25.812Z,48.08
2022-08-15T18:19:14.872Z,48.03
2022-08-15T18:20:44.847Z,48.15
2022-08-15T18:22:01.609Z,48.18
2022-08-15T18:24:51.804Z,48.05
2022-08-15T18:27:24.214Z,48.02
2022-08-15T18:31:31.797Z,47.93
2022-08-15T18:34:29.726Z,47.83
2022-08-15T18:36:59.258Z,47.76
2022-08-15T18:38:18.598Z,47.76
2022-08-15T18:41:50.400Z,47.83
2022-08-15T18:44:28.174Z,47.92
2022-08-15T18:48:35.330Z,47.72
2022-08-15T18:49:42.058Z,47.40
2022-08-15T18:50:59.253Z,47.49
2022-08-15T18:53:33.472Z,47.58
2022-08-15T18:56:26.096Z,47.62
2022-08-15T19:04:49.567Z,47.92
2022-08-15T19:07:22.112Z,48.26
2022-08-15T19:08:38.530Z,48.41
2022-08-15T19:09:42.208Z,48.65
2022-08-15T19:10:57.472Z,48.91
2022-08-15T19:12:15.332Z,49.13
2022-08-15T19:14:53.428Z,48.97
2022-08-15T19:17:32.510Z,49.20
2022-08-15T19:18:55.482Z,49.15
2022-08-15T19:20:26.146Z,49.26
2022-08-15T19:21:31.535Z,49.22
2022-08-15T19:24:05.000Z,49.32
2022-08-15T19:31:01.886Z,49.20
2022-08-15T19:37:28.142Z,49.20
2022-08-15T19:40:25.686Z,49.18
2022-08-15T19:42:07.196Z,49.28
2022-08-15T19:43:36.655Z,49.31
2022-08-15T19:46:35.601Z,49.33
2022-08-15T19:49:15.121Z,49.63
2022-08-15T19:52:51.703Z,49.67
2022-08-15T19:57:51.412Z,49.28
2022-08-15T20:00:25.201Z,49.48
2022-08-15T20:03:18.211Z,49.50
2022-08-15T20:04:53.271Z,49.29
2022-08-15T20:07:38.468Z,49.47
2022-08-15T20:10:50.466Z,49.42
2022-08-15T20:12:30.981Z,49.52
2022-08-15T20:15:24.801Z,49.78
2022-08-15T20:18:43.329Z,49.94
2022-08-15T20:20:28.405Z,49.89
2022-08-15T20:21:37.880Z,49.91
2022-08-15T20:30:20.335Z,50.20
2022-08-15T20:31:58.800Z,50.19
2022-08-15T20:34:23.406Z,50.22
2022-08-15T20:35:39.024Z,50.15
2022-08-15T20:36:49.655Z,50.44
2022-08-15T20:39:26.876Z,50.84
2022-08-15T20:42:05.323Z,51.14
2022-08-15T20:43:33.524Z,50.99
2022-08-15T20:46:31.772Z,51.04
2022-08-15T20:53:15.978Z,51.01
2022-08-15T20:54:34.449Z,50.81
2022-08-15T20:55:42.468Z,50.79
2022-08-15T20:58:11.132Z,50.44
2022-08-15T21:01:18.431Z,50.32
2022-08-15T21:04:06.034Z,50.07
2022-08-15T21:08:12.119Z,49.94
2022-08-15T21:11:05.558Z,50.28
2022-08-15T21:12:37.430Z,50.10
2022-08-15T21:13:58.658Z,50.04
2022-08-15T21:16:03.577Z,50.08
2022-08-15T21:16:55.798Z,50.19
2022-08-15T21:18:14.441Z,50.01
2022-08-15T21:21:17.318Z,49.75
2022-08-15T21:22:43.596Z,49.78
2022-08-15T21:25:42.501Z,49.82
2022-08-15T21:26:55.552Z,49.70
2022-08-15T21:29:28.441Z,49.43
2022-08-15T21:32:32.113Z,49.21
2022-08-15T21:33:44.686Z,49.10
2022-08-15T21:35:14.863Z,49.27
2022-08-15T21:37:53.633Z,49.93
2022-08-15T21:40:46.389Z,50.00
2022-08-15T21:43:51.651Z,50.21
2022-08-15T21:46:49.627Z,49.80
2022-08-15T21:49:43.729Z,49.50
2022-08-15T21:52:29.974Z,49.39
2022-08-15T21:55:09.613Z,49.36
2022-08-15T21:56:26.010Z,49.25
2022-08-15T21:57:41.787Z,49.55
2022-08-15T21:59:15.634Z,49.33
2022-08-15T22:00:33.036Z,49.36
2022-08-15T22:03:35.772Z,49.28
2022-08-15T22:06:06.527Z,49.50
2022-08-15T22:08:51.448Z,49.09
2022-08-15T22:11:18.572Z,49.66
2022-08-15T22:12:33.828Z,49.31
2022-08-15T22:13:47.571Z,49.28
2022-08-15T22:15:01.773Z,49.45
2022-08-15T22:17:31.757Z,49.15
2022-08-15T22:19:57.937Z,49.08
2022-08-15T22:21:11.057Z,49.07
2022-08-15T22:23:38.624Z,48.86
2022-08-15T22:26:36.670Z,49.24
2022-08-15T22:27:24.931Z,48.91
2022-08-15T22:28:59.523Z,48.73
2022-08-15T22:31:06.987Z,48.21
2022-08-15T22:32:31.114Z,48.33
2022-08-15T22:34:52.534Z,47.65
2022-08-15T22:37:34.565Z,47.69
2022-08-15T22:41:27.901Z,47.17
2022-08-15T22:44:00.086Z,46.43
2022-08-15T22:46:38.681Z,45.98
2022-08-15T22:49:17.644Z,45.46
2022-08-15T22:50:30.083Z,45.26
2022-08-15T22:51:46.190Z,44.99
2022-08-15T22:52:58.568Z,44.70
2022-08-15T22:54:12.664Z,44.53
2022-08-15T22:56:54.985Z,44.07
2022-08-15T22:58:10.300Z,43.90
2022-08-15T22:59:23.997Z,43.84
2022-08-15T23:00:46.696Z,43.59
2022-08-15T23:03:24.849Z,43.47
2022-08-15T23:04:43.094Z,43.39
2022-08-15T23:07:26.489Z,43.30
2022-08-15T23:08:39.709Z,43.32
2022-08-15T23:11:23.949Z,43.08
2022-08-15T23:12:38.097Z,43.15
2022-08-15T23:15:34.329Z,43.11
2022-08-15T23:16:47.201Z,43.06
2022-08-15T23:19:32.015Z,43.35
2022-08-15T23:20:46.331Z,43.28
2022-08-15T23:23:38.158Z,43.11
2022-08-15T23:26:32.177Z,43.03
2022-08-15T23:28:56.496Z,43.27
2022-08-15T23:30:31.163Z,43.13
2022-08-15T23:32:48.235Z,43.29
2022-08-15T23:34:01.930Z,43.40
2022-08-15T23:35:15.398Z,43.13
2022-08-15T23:37:54.164Z,42.99
2022-08-15T23:40:27.811Z,43.07
2022-08-15T23:43:18.997Z,43.00
2022-08-15T23:44:32.005Z,43.03
2022-08-15T23:45:45.568Z,42.91
2022-08-15T23:46:57.164Z,42.79
2022-08-15T23:49:23.162Z,43.32
2022-08-15T23:51:48.327Z,43.47
2022-08-15T23:54:32.678Z,43.22
2022-08-15T23:55:44.252Z,43.42
2022-08-15T23:58:13.581Z,43.23
2022-08-15T23:59:28.317Z,42.91
